createdAt,value
2017-07-30T00:01:57.444Z,86.88
2017-07-30T00:04:24.884Z,87.81
2017-07-30T00:06:52.342Z,87.17
2017-07-30T00:09:19.828Z,87.16
2017-07-30T00:11:47.270Z,86.46
2017-07-30T00:14:14.737Z,87.19
2017-07-30T00:16:42.206Z,87.75
2017-07-30T00:19:09.648Z,88.30
2017-07-30T00:21:37.092Z,87.62
2017-07-30T00:24:04.561Z,88.23
2017-07-30T00:26:32.005Z,87.92
2017-07-30T00:28:59.476Z,88.19
2017-07-30T00:31:26.918Z,88.55
2017-07-30T00:33:54.359Z,88.62
2017-07-30T00:36:21.845Z,88.14
2017-07-30T00:38:49.302Z,88.55
2017-07-30T00:41:16.781Z,88.18
2017-07-30T00:43:44.217Z,87.50
2017-07-30T00:46:11.671Z,88.00
2017-07-30T00:48:39.186Z,88.43
2017-07-30T00:51:06.627Z,88.54
2017-07-30T00:53:34.100Z,88.52
2017-07-30T00:56:01.545Z,88.03
2017-07-30T00:58:28.990Z,88.11
2017-07-30T01:00:56.474Z,88.08
2017-07-30T01:03:23.935Z,87.95
2017-07-30T01:05:51.380Z,88.56
2017-07-30T01:08:19.061Z,89.07
2017-07-30T01:10:46.510Z,89.31
2017-07-30T01:13:14.573Z,89.42
2017-07-30T01:15:42.052Z,89.14
2017-07-30T01:18:09.501Z,88.62
2017-07-30T01:20:37.004Z,88.79
2017-07-30T01:23:04.481Z,88.86
2017-07-30T01:25:31.948Z,88.78
2017-07-30T01:27:59.407Z,88.73
2017-07-30T01:30:26.853Z,88.69
2017-07-30T01:32:54.328Z,88.96
2017-07-30T01:35:21.778Z,89.37
2017-07-30T01:37:49.263Z,90.07
2017-07-30T01:40:16.713Z,90.65
2017-07-30T01:42:44.161Z,90.15
2017-07-30T01:45:11.635Z,90.26
2017-07-30T01:47:39.088Z,90.05
2017-07-30T01:50:06.553Z,90.14
2017-07-30T01:52:34.050Z,90.25
2017-07-30T01:55:01.497Z,90.42
2017-07-30T01:57:28.958Z,91.37
2017-07-30T01:59:56.430Z,91.82
2017-07-30T02:02:24.140Z,90.73
2017-07-30T02:04:51.600Z,91.53
2017-07-30T02:07:19.074Z,91.72
2017-07-30T02:09:46.536Z,91.29
2017-07-30T02:12:14.273Z,91.32
2017-07-30T02:14:41.721Z,91.12
2017-07-30T02:17:09.174Z,91.10
2017-07-30T02:19:36.967Z,91.35
2017-07-30T02:22:04.420Z,91.20
2017-07-30T02:24:31.868Z,91.03
2017-07-30T02:26:59.329Z,90.86
2017-07-30T02:29:26.997Z,91.15
2017-07-30T02:31:54.453Z,91.10
2017-07-30T02:34:21.897Z,91.34
2017-07-30T02:36:49.494Z,91.29
2017-07-30T02:39:16.942Z,91.83
2017-07-30T02:41:44.393Z,91.45
2017-07-30T02:44:11.860Z,91.38
2017-07-30T02:46:39.316Z,91.81
2017-07-30T02:49:06.951Z,92.38
2017-07-30T02:51:34.411Z,91.86
2017-07-30T02:54:01.880Z,92.40
2017-07-30T02:56:29.325Z,93.30
2017-07-30T02:58:56.793Z,93.87
2017-07-30T03:01:24.260Z,94.01
2017-07-30T03:03:51.747Z,94.02
2017-07-30T03:06:19.217Z,94.03
2017-07-30T03:08:46.663Z,93.54
2017-07-30T03:11:14.138Z,93.63
2017-07-30T03:13:41.598Z,94.08
2017-07-30T03:16:09.068Z,94.25
2017-07-30T03:18:36.513Z,94.40
2017-07-30T03:21:03.983Z,93.57
2017-07-30T03:23:31.462Z,93.92
2017-07-30T03:25:58.913Z,93.72
2017-07-30T03:28:26.383Z,93.63
2017-07-30T03:30:53.834Z,94.40
2017-07-30T03:33:21.276Z,93.37
2017-07-30T03:35:48.757Z,93.02
2017-07-30T03:38:16.205Z,93.09
2017-07-30T03:40:43.673Z,93.36
2017-07-30T03:43:11.163Z,94.08
2017-07-30T03:45:38.609Z,94.25
2017-07-30T03:48:06.197Z,93.64
2017-07-30T03:50:33.642Z,93.42
2017-07-30T03:53:01.093Z,92.76
2017-07-30T03:55:28.573Z,93.48
2017-07-30T03:57:56.021Z,93.76
2017-07-30T04:00:23.472Z,93.43
2017-07-30T04:02:51.123Z,93.41
2017-07-30T04:05:18.582Z,93.12
2017-07-30T04:07:46.032Z,92.95
2017-07-30T04:10:13.521Z,92.07
2017-07-30T04:12:40.965Z,92.09
2017-07-30T04:15:08.414Z,92.10
2017-07-30T04:17:35.888Z,92.21
2017-07-30T04:20:03.325Z,91.81
2017-07-30T04:22:30.976Z,91.67
2017-07-30T04:24:58.430Z,91.45
2017-07-30T04:27:25.905Z,91.10
2017-07-30T04:29:53.353Z,90.89
2017-07-30T04:32:20.820Z,91.12
2017-07-30T04:34:48.265Z,90.85
2017-07-30T04:37:15.728Z,90.15
2017-07-30T04:39:43.176Z,90.19
2017-07-30T04:42:10.640Z,90.15
2017-07-30T04:44:38.147Z,90.07
2017-07-30T04:47:05.618Z,90.57
2017-07-30T04:49:33.072Z,89.98
2017-07-30T04:52:00.535Z,89.75
2017-07-30T04:54:28.030Z,89.81
2017-07-30T04:56:55.477Z,89.25
2017-07-30T04:59:22.937Z,89.20
2017-07-30T05:01:50.405Z,88.35
2017-07-30T05:04:17.850Z,87.99
2017-07-30T05:06:45.317Z,87.77
2017-07-30T05:09:12.770Z,87.67
2017-07-30T05:11:40.232Z,87.07
2017-07-30T05:14:07.711Z,86.70
2017-07-30T05:16:35.165Z,86.46
2017-07-30T05:19:02.622Z,85.54
2017-07-30T05:21:30.088Z,85.03
2017-07-30T05:23:57.536Z,84.65
2017-07-30T05:26:25.008Z,84.36
2017-07-30T05:28:52.465Z,84.52
2017-07-30T05:31:19.921Z,84.05
2017-07-30T05:33:47.403Z,84.54
2017-07-30T05:36:14.868Z,83.43
2017-07-30T05:38:42.349Z,83.67
2017-07-30T05:41:09.820Z,82.95
2017-07-30T05:43:37.533Z,83.37
2017-07-30T05:46:04.989Z,83.22
2017-07-30T05:48:32.448Z,82.83
2017-07-30T05:50:59.913Z,82.66
2017-07-30T05:53:27.365Z,83.28
2017-07-30T05:55:55.280Z,83.04
2017-07-30T05:58:22.732Z,83.15
2017-07-30T06:00:50.192Z,82.05
2017-07-30T06:03:17.813Z,82.07
2017-07-30T06:05:45.272Z,81.18
2017-07-30T06:08:12.718Z,80.39
2017-07-30T06:10:40.206Z,79.91
2017-07-30T06:13:07.661Z,79.77
2017-07-30T06:15:35.585Z,79.44
2017-07-30T06:18:03.036Z,78.51
2017-07-30T06:20:30.493Z,78.41
2017-07-30T06:22:57.960Z,78.91
2017-07-30T06:25:25.437Z,79.61
2017-07-30T06:27:52.925Z,79.55
2017-07-30T06:30:21.476Z,78.91
2017-07-30T06:32:49.325Z,78.28
2017-07-30T06:35:16.787Z,78.80
2017-07-30T06:37:44.233Z,77.47
2017-07-30T06:40:11.717Z,75.94
2017-07-30T06:42:39.180Z,75.20
2017-07-30T06:45:06.646Z,75.13
2017-07-30T06:47:34.128Z,75.17
2017-07-30T06:50:01.568Z,73.42
2017-07-30T06:52:29.008Z,72.55
2017-07-30T06:54:56.777Z,71.28
2017-07-30T06:57:24.228Z,72.13
2017-07-30T06:59:51.681Z,72.49
2017-07-30T07:02:19.149Z,70.82
2017-07-30T07:04:46.627Z,71.06
2017-07-30T07:07:14.109Z,71.14
2017-07-30T07:09:41.564Z,68.48
2017-07-30T07:12:09.029Z,68.38
2017-07-30T07:14:36.477Z,68.34
2017-07-30T07:17:04.221Z,67.41
2017-07-30T07:19:31.670Z,66.87
2017-07-30T07:21:59.120Z,67.51
2017-07-30T07:24:26.584Z,68.10
2017-07-30T07:26:54.314Z,66.17
2017-07-30T07:29:21.780Z,66.72
2017-07-30T07:31:49.220Z,66.50
2017-07-30T07:34:16.663Z,66.36
2017-07-30T07:36:44.518Z,67.64
2017-07-30T07:39:11.960Z,65.87
2017-07-30T07:41:39.412Z,65.80
2017-07-30T07:44:06.889Z,64.93
2017-07-30T07:46:34.332Z,63.68
2017-07-30T07:49:01.785Z,62.20
2017-07-30T07:51:29.261Z,63.09
2017-07-30T07:53:56.717Z,62.89
2017-07-30T07:56:24.222Z,62.71
2017-07-30T07:58:51.673Z,61.57
2017-07-30T08:01:19.685Z,62.69
2017-07-30T08:03:47.190Z,62.28
2017-07-30T08:06:14.705Z,62.49
2017-07-30T08:08:42.150Z,62.61
2017-07-30T08:11:09.620Z,60.87
2017-07-30T08:13:37.090Z,61.20
2017-07-30T08:16:04.937Z,61.60
2017-07-30T08:18:32.385Z,59.86
2017-07-30T08:20:59.845Z,61.20
2017-07-30T08:23:27.333Z,60.37
2017-07-30T08:25:54.805Z,60.57
2017-07-30T08:28:22.279Z,60.44
2017-07-30T08:30:49.724Z,59.00
2017-07-30T08:33:17.197Z,59.79
2017-07-30T08:35:44.633Z,58.89
2017-07-30T08:38:12.202Z,59.50
2017-07-30T08:40:39.653Z,58.82
2017-07-30T08:43:07.098Z,56.64
2017-07-30T08:45:34.578Z,56.66
2017-07-30T08:48:02.033Z,57.56
2017-07-30T08:50:29.475Z,58.92
2017-07-30T08:52:57.359Z,57.57
2017-07-30T08:55:24.815Z,56.73
2017-07-30T08:57:52.287Z,57.66
2017-07-30T09:00:19.992Z,57.15
2017-07-30T09:02:47.444Z,59.02
2017-07-30T09:05:14.888Z,57.56
2017-07-30T09:07:42.356Z,56.85
2017-07-30T09:10:09.861Z,55.28
2017-07-30T09:12:37.309Z,57.16
2017-07-30T09:15:04.756Z,54.73
2017-07-30T09:17:32.228Z,56.99
2017-07-30T09:19:59.685Z,55.33
2017-07-30T09:22:27.465Z,56.85
2017-07-30T09:24:54.916Z,54.60
2017-07-30T09:27:22.364Z,55.26
2017-07-30T09:29:49.847Z,56.65
2017-07-30T09:32:17.294Z,56.71
2017-07-30T09:34:44.765Z,56.74
2017-07-30T09:37:12.217Z,57.90
2017-07-30T09:39:39.923Z,55.77
2017-07-30T09:42:07.379Z,56.08
2017-07-30T09:44:34.833Z,56.69
2017-07-30T09:47:02.302Z,55.64
2017-07-30T09:49:30.118Z,54.37
2017-07-30T09:51:57.564Z,54.63
2017-07-30T09:54:25.014Z,54.64
2017-07-30T09:56:52.476Z,55.18
2017-07-30T09:59:20.268Z,56.45
2017-07-30T10:01:47.708Z,54.18
2017-07-30T10:04:15.148Z,54.45
2017-07-30T10:06:42.613Z,54.19
2017-07-30T10:09:10.412Z,53.71
2017-07-30T10:11:37.857Z,55.08
2017-07-30T10:14:05.316Z,54.88
2017-07-30T10:16:32.785Z,53.56
2017-07-30T10:19:00.257Z,52.37
2017-07-30T10:21:27.713Z,53.79
2017-07-30T10:23:55.177Z,53.58
2017-07-30T10:26:22.649Z,53.41
2017-07-30T10:28:50.097Z,53.19
2017-07-30T10:31:17.562Z,51.97
2017-07-30T10:33:45.033Z,51.96
2017-07-30T10:36:12.774Z,52.82
2017-07-30T10:38:40.220Z,51.86
2017-07-30T10:41:07.677Z,52.11
2017-07-30T10:43:35.145Z,53.07
2017-07-30T10:46:02.620Z,53.08
2017-07-30T10:48:30.076Z,50.63
2017-07-30T10:50:57.646Z,50.94
2017-07-30T10:53:25.083Z,49.46
2017-07-30T10:55:52.544Z,48.24
2017-07-30T10:58:20.009Z,49.01
2017-07-30T11:00:47.483Z,48.84
2017-07-30T11:03:14.924Z,47.55
2017-07-30T11:05:42.369Z,47.75
2017-07-30T11:08:09.833Z,47.71
2017-07-30T11:10:37.272Z,49.15
2017-07-30T11:13:04.972Z,49.02
2017-07-30T11:15:32.425Z,52.19
2017-07-30T11:17:59.865Z,48.09
2017-07-30T11:20:27.670Z,48.47
2017-07-30T11:22:55.113Z,50.54
2017-07-30T11:25:22.550Z,48.12
2017-07-30T11:27:50.033Z,48.82
2017-07-30T11:30:17.474Z,47.42
2017-07-30T11:32:44.953Z,48.14
2017-07-30T11:35:12.404Z,47.40
2017-07-30T11:37:39.841Z,45.65
2017-07-30T11:40:07.314Z,45.07
2017-07-30T11:42:34.757Z,46.31
2017-07-30T11:45:02.221Z,44.36
2017-07-30T11:47:29.658Z,45.40
2017-07-30T11:49:57.252Z,42.95
2017-07-30T11:52:24.702Z,43.28
2017-07-30T11:54:52.171Z,42.46
2017-07-30T11:57:19.647Z,43.21
2017-07-30T11:59:47.085Z,42.83
2017-07-30T12:02:14.583Z,41.41
2017-07-30T12:04:42.027Z,39.72
2017-07-30T12:07:09.473Z,38.73
2017-07-30T12:09:36.933Z,38.15
2017-07-30T12:12:04.377Z,38.57
2017-07-30T12:14:31.840Z,42.44
2017-07-30T12:16:59.553Z,35.15
2017-07-30T12:19:26.989Z,35.63
2017-07-30T12:21:54.459Z,35.75
2017-07-30T12:24:21.934Z,37.70
2017-07-30T12:26:49.396Z,33.50
2017-07-30T12:29:16.852Z,34.02
2017-07-30T12:31:44.320Z,35.14
2017-07-30T12:34:11.777Z,32.76
2017-07-30T12:36:39.244Z,31.58
2017-07-30T12:39:06.693Z,32.32
2017-07-30T12:41:34.164Z,32.15
2017-07-30T12:44:01.613Z,32.58
2017-07-30T12:46:29.058Z,31.59
2017-07-30T12:48:56.535Z,31.48
2017-07-30T12:51:23.977Z,33.40
2017-07-30T12:53:51.456Z,30.76
2017-07-30T12:56:18.910Z,34.33
2017-07-30T12:58:46.355Z,31.22
2017-07-30T13:01:13.830Z,30.98
2017-07-30T13:03:41.304Z,31.76
2017-07-30T13:06:08.776Z,34.63
2017-07-30T13:08:36.217Z,32.17
2017-07-30T13:11:03.680Z,29.21
2017-07-30T13:13:31.124Z,27.96
2017-07-30T13:15:58.896Z,27.59
2017-07-30T13:18:26.341Z,28.42
2017-07-30T13:20:53.793Z,30.45
2017-07-30T13:23:21.253Z,29.76
2017-07-30T13:25:49.021Z,29.29
2017-07-30T13:28:16.461Z,30.11
2017-07-30T13:30:43.909Z,29.78
2017-07-30T13:33:11.375Z,30.72
2017-07-30T13:35:38.817Z,31.77
2017-07-30T13:38:06.295Z,29.39
2017-07-30T13:40:33.743Z,28.25
2017-07-30T13:43:01.185Z,30.05
2017-07-30T13:45:28.653Z,28.07
2017-07-30T13:47:56.102Z,30.49
2017-07-30T13:50:23.573Z,30.67
2017-07-30T13:52:51.016Z,28.88
2017-07-30T13:55:18.869Z,26.93
2017-07-30T13:57:46.309Z,28.16
2017-07-30T14:00:13.754Z,27.38
2017-07-30T14:02:41.261Z,31.54
2017-07-30T14:05:08.709Z,28.13
2017-07-30T14:07:36.176Z,29.50
2017-07-30T14:10:03.619Z,29.19
2017-07-30T14:12:31.104Z,31.06
2017-07-30T14:14:58.581Z,28.67
2017-07-30T14:17:26.025Z,32.75
2017-07-30T14:19:53.488Z,28.47
2017-07-30T14:22:20.931Z,28.39
2017-07-30T14:24:48.374Z,28.88
2017-07-30T14:27:15.848Z,31.81
2017-07-30T14:29:43.288Z,31.34
2017-07-30T14:32:10.728Z,31.27
2017-07-30T14:34:38.196Z,27.39
2017-07-30T14:37:05.992Z,26.87
2017-07-30T14:39:33.445Z,29.25
2017-07-30T14:42:00.885Z,26.61
2017-07-30T14:44:28.705Z,27.76
2017-07-30T14:46:56.156Z,28.17
2017-07-30T14:49:23.609Z,29.45
2017-07-30T14:51:51.080Z,31.42
2017-07-30T14:54:18.523Z,26.14
2017-07-30T14:56:45.965Z,27.51
2017-07-30T14:59:13.432Z,27.09
2017-07-30T15:01:40.880Z,27.94
2017-07-30T15:04:08.360Z,27.68
2017-07-30T15:06:35.807Z,26.83
2017-07-30T15:09:03.266Z,28.49
2017-07-30T15:11:30.753Z,30.02
2017-07-30T15:13:58.201Z,31.96
2017-07-30T15:16:25.962Z,29.71
2017-07-30T15:18:53.404Z,31.16
2017-07-30T15:21:20.846Z,31.89
2017-07-30T15:23:48.340Z,32.54
2017-07-30T15:26:15.794Z,32.25
2017-07-30T15:28:43.248Z,34.33
2017-07-30T15:31:10.720Z,32.07
2017-07-30T15:33:38.194Z,32.26
2017-07-30T15:36:05.681Z,33.53
2017-07-30T15:38:33.137Z,30.55
2017-07-30T15:41:00.880Z,30.80
2017-07-30T15:43:28.328Z,32.75
2017-07-30T15:45:55.778Z,31.53
2017-07-30T15:48:23.243Z,29.84
2017-07-30T15:50:50.693Z,29.67
2017-07-30T15:53:18.159Z,32.18
2017-07-30T15:55:45.657Z,32.13
2017-07-30T15:58:13.109Z,31.18
2017-07-30T16:00:40.567Z,32.54
2017-07-30T16:03:08.357Z,27.89
2017-07-30T16:05:35.817Z,31.74
2017-07-30T16:08:03.273Z,30.31
2017-07-30T16:10:30.931Z,29.90
2017-07-30T16:12:58.371Z,31.79
2017-07-30T16:15:25.816Z,32.52
2017-07-30T16:17:53.284Z,32.79
2017-07-30T16:20:20.733Z,33.78
2017-07-30T16:22:48.218Z,32.45
2017-07-30T16:25:15.704Z,34.12
2017-07-30T16:27:43.195Z,34.67
2017-07-30T16:30:10.646Z,37.21
2017-07-30T16:32:38.114Z,36.63
2017-07-30T16:35:05.577Z,36.43
2017-07-30T16:37:33.049Z,35.59
2017-07-30T16:40:00.514Z,35.44
2017-07-30T16:42:27.989Z,34.05
2017-07-30T16:44:55.462Z,34.12
2017-07-30T16:47:23.230Z,34.49
2017-07-30T16:49:50.688Z,35.32
2017-07-30T16:52:18.136Z,33.30
2017-07-30T16:54:45.850Z,33.65
2017-07-30T16:57:13.313Z,33.96
2017-07-30T16:59:40.759Z,35.63
2017-07-30T17:02:08.339Z,34.14
2017-07-30T17:04:35.856Z,31.44
2017-07-30T17:07:03.874Z,31.24
2017-07-30T17:09:32.668Z,29.88
2017-07-30T17:12:00.202Z,30.20
2017-07-30T17:14:28.737Z,28.05
2017-07-30T17:16:57.216Z,29.27
2017-07-30T17:19:24.859Z,28.33
2017-07-30T17:21:52.362Z,28.09
2017-07-30T17:24:19.846Z,28.04
2017-07-30T17:26:47.974Z,27.07
2017-07-30T17:29:16.321Z,27.23
2017-07-30T17:31:43.928Z,26.99
2017-07-30T17:34:11.368Z,26.93
2017-07-30T17:36:38.825Z,27.03
2017-07-30T17:39:06.385Z,26.67
2017-07-30T17:41:35.118Z,26.60
2017-07-30T17:44:02.776Z,27.60
2017-07-30T17:46:30.574Z,29.70
2017-07-30T17:48:58.020Z,29.90
2017-07-30T17:51:26.117Z,31.51
2017-07-30T17:53:55.310Z,31.37
2017-07-30T17:56:22.903Z,31.98
2017-07-30T17:58:50.653Z,31.24
2017-07-30T18:01:18.099Z,34.55
2017-07-30T18:03:46.249Z,36.30
2017-07-30T18:06:15.442Z,36.77
2017-07-30T18:08:43.886Z,40.03
2017-07-30T18:11:11.397Z,40.17
2017-07-30T18:13:38.874Z,40.76
2017-07-30T18:16:06.361Z,41.60
2017-07-30T18:18:34.754Z,44.86
2017-07-30T18:21:02.334Z,45.06
2017-07-30T18:23:30.090Z,44.57
2017-07-30T18:25:57.545Z,44.16
2017-07-30T18:28:25.631Z,45.86
2017-07-30T18:30:54.046Z,46.89
2017-07-30T18:33:21.574Z,45.12
2017-07-30T18:35:49.023Z,46.26
2017-07-30T18:38:16.516Z,46.68
2017-07-30T18:40:44.984Z,47.66
2017-07-30T18:43:12.550Z,49.54
2017-07-30T18:45:41.085Z,48.69
2017-07-30T18:48:09.608Z,49.10
2017-07-30T18:50:38.545Z,49.23
2017-07-30T18:53:05.989Z,50.31
2017-07-30T18:55:33.440Z,51.39
2017-07-30T18:58:00.902Z,52.10
2017-07-30T19:00:28.357Z,51.93
2017-07-30T19:02:55.818Z,52.19
2017-07-30T19:05:23.263Z,53.38
2017-07-30T19:07:50.754Z,53.46
2017-07-30T19:10:18.414Z,53.58
2017-07-30T19:12:45.861Z,57.77
2017-07-30T19:15:13.314Z,56.71
2017-07-30T19:17:40.808Z,58.42
2017-07-30T19:20:08.255Z,56.50
2017-07-30T19:22:35.697Z,56.18
2017-07-30T19:25:03.165Z,57.09
2017-07-30T19:27:30.746Z,58.45
2017-07-30T19:29:58.189Z,58.27
2017-07-30T19:32:26.341Z,59.99
2017-07-30T19:34:54.084Z,59.64
2017-07-30T19:37:21.536Z,59.43
2017-07-30T19:39:49.033Z,59.47
2017-07-30T19:42:16.518Z,59.07
2017-07-30T19:44:43.963Z,59.90
2017-07-30T19:47:11.990Z,59.45
2017-07-30T19:49:39.472Z,60.23
2017-07-30T19:52:06.948Z,60.41
2017-07-30T19:54:34.392Z,58.37
2017-07-30T19:57:01.837Z,60.08
2017-07-30T19:59:29.700Z,59.88
2017-07-30T20:01:58.826Z,59.83
2017-07-30T20:04:26.292Z,60.88
2017-07-30T20:06:53.782Z,61.31
2017-07-30T20:09:21.241Z,61.68
2017-07-30T20:11:49.326Z,62.52
2017-07-30T20:14:17.671Z,62.27
2017-07-30T20:16:45.158Z,61.86
2017-07-30T20:19:12.625Z,62.08
2017-07-30T20:21:40.476Z,63.83
2017-07-30T20:24:08.789Z,63.80
2017-07-30T20:26:36.393Z,64.76
2017-07-30T20:29:04.129Z,64.45
2017-07-30T20:31:31.577Z,64.45
2017-07-30T20:33:59.241Z,64.01
2017-07-30T20:36:28.327Z,64.00
2017-07-30T20:38:55.838Z,64.14
2017-07-30T20:41:24.954Z,67.02
2017-07-30T20:43:52.423Z,69.41
2017-07-30T20:46:20.205Z,68.91
2017-07-30T20:48:48.709Z,63.52
2017-07-30T20:51:16.192Z,62.81
2017-07-30T20:53:43.638Z,63.38
2017-07-30T20:56:11.111Z,63.75
2017-07-30T20:58:38.857Z,63.64
2017-07-30T21:01:06.325Z,63.30
2017-07-30T21:03:33.789Z,65.02
2017-07-30T21:06:01.275Z,64.24
2017-07-30T21:08:28.719Z,61.44
2017-07-30T21:10:56.192Z,61.95
2017-07-30T21:13:23.647Z,63.92
2017-07-30T21:15:51.121Z,64.47
2017-07-30T21:18:18.576Z,65.14
2017-07-30T21:20:46.048Z,64.53
2017-07-30T21:23:13.496Z,65.70
2017-07-30T21:25:40.977Z,66.41
2017-07-30T21:28:08.445Z,66.37
2017-07-30T21:30:36.118Z,66.84
2017-07-30T21:33:03.561Z,66.67
2017-07-30T21:35:31.009Z,67.24
2017-07-30T21:37:58.477Z,68.34
2017-07-30T21:40:25.927Z,67.41
2017-07-30T21:42:53.741Z,67.97
2017-07-30T21:45:21.181Z,68.02
2017-07-30T21:47:48.625Z,68.84
2017-07-30T21:50:16.102Z,69.11
2017-07-30T21:52:43.548Z,68.59
2017-07-30T21:55:11.025Z,68.41
2017-07-30T21:57:38.477Z,69.22
2017-07-30T22:00:05.953Z,69.53
2017-07-30T22:02:33.402Z,68.16
2017-07-30T22:05:00.852Z,67.55
2017-07-30T22:07:28.510Z,67.78
2017-07-30T22:09:55.958Z,69.19
2017-07-30T22:12:23.412Z,72.18
2017-07-30T22:14:50.891Z,71.44
2017-07-30T22:17:18.696Z,71.06
2017-07-30T22:19:46.145Z,69.08
2017-07-30T22:22:13.632Z,68.06
2017-07-30T22:24:41.494Z,67.75
2017-07-30T22:27:08.942Z,67.95
2017-07-30T22:29:36.386Z,65.93
2017-07-30T22:32:03.857Z,66.17
2017-07-30T22:34:31.301Z,65.44
2017-07-30T22:36:58.789Z,66.17
2017-07-30T22:39:26.237Z,66.46
2017-07-30T22:41:53.697Z,66.36
2017-07-30T22:44:21.169Z,66.54
2017-07-30T22:46:48.637Z,66.40
2017-07-30T22:49:16.093Z,67.11
2017-07-30T22:51:43.541Z,67.47
2017-07-30T22:54:11.009Z,68.09
2017-07-30T22:56:38.457Z,68.00
2017-07-30T22:59:05.905Z,68.29
2017-07-30T23:01:33.639Z,68.60
2017-07-30T23:04:01.082Z,69.20
2017-07-30T23:06:28.538Z,69.89
2017-07-30T23:08:56.016Z,69.87
2017-07-30T23:11:23.466Z,70.40
2017-07-30T23:13:50.917Z,70.96
2017-07-30T23:16:18.396Z,71.04
2017-07-30T23:18:45.856Z,71.12
2017-07-30T23:21:13.337Z,70.83
2017-07-30T23:23:40.777Z,70.83
2017-07-30T23:26:08.232Z,70.62
2017-07-30T23:28:35.703Z,71.08
2017-07-30T23:31:03.165Z,71.81
2017-07-30T23:33:30.636Z,72.66
2017-07-30T23:35:58.105Z,72.37
2017-07-30T23:38:25.578Z,71.65
2017-07-30T23:40:53.037Z,71.48
2017-07-30T23:43:20.518Z,71.87
2017-07-30T23:45:47.961Z,72.10
2017-07-30T23:48:15.414Z,72.19
2017-07-30T23:50:42.901Z,72.70
2017-07-30T23:53:10.351Z,73.44
2017-07-30T23:55:37.788Z,73.42
2017-07-30T23:58:05.252Z,74.64
